KCAO/CAO METAR and TAF weather

Enter ICAO airport designator
Station Type Date Time Source
KCAO METAR 2019/04/21 21:55 UTC NOAA

KCAO 212155Z AUTO 22015G25KT 10SM CLR 26/M05 A2980 RMK AO2 PK WND 21026/2101 SLP034 T02561050 $


Station Type Date Time Source
KCAO Decoded METAR 2019/04/21 21:55 UTC NOAA

CLAYTON MUNICIPAL AIRPARK, NM, United States (KCAO) 36-27N 103-09W 1514M
Apr 21, 2019 - 05:55 PM EDT / 2019.04.21 2155 UTC
Wind: from the SW (220 degrees) at 17 MPH (15 KT) gusting to 29 MPH (25 KT):0
Visibility: 10 mile(s):0
Sky conditions: clear
Temperature: 78.1 F (25.6 C)
Dew Point: 23.0 F (-5.0 C)
Relative Humidity: 12%
Pressure (altimeter): 29.8 in. Hg (1009 hPa)
ob: KCAO 212155Z AUTO 22015G25KT 10SM CLR 26/M05 A2980 RMK AO2 PK WND 21026/2101 SLP034 T02561050
cycle: 22

Station Type Date Time Source
KCAO TAF UTC NOAA

Error!

Example: see airport list